createdAt,value
2018-09-01T00:00:20.258Z,2.50
2018-09-01T00:05:24.055Z,2.50
2018-09-01T00:10:27.612Z,3.60
2018-09-01T00:15:31.205Z,4.00
2018-09-01T00:20:34.852Z,4.25
2018-09-01T00:25:38.446Z,4.25
2018-09-01T00:30:42.052Z,3.00
2018-09-01T00:35:45.674Z,3.60
2018-09-01T00:40:49.317Z,2.60
2018-09-01T00:45:52.948Z,3.00
2018-09-01T00:50:56.579Z,3.60
2018-09-01T00:56:00.202Z,3.25
2018-09-01T01:01:03.825Z,3.20
2018-09-01T01:06:07.460Z,3.20
2018-09-01T01:11:11.171Z,3.75
2018-09-01T01:16:14.989Z,3.50
2018-09-01T01:21:18.830Z,4.00
2018-09-01T01:26:22.485Z,2.75
2018-09-01T01:31:26.223Z,3.75
2018-09-01T01:36:29.838Z,4.00
2018-09-01T01:41:33.450Z,4.00
2018-09-01T01:46:37.110Z,4.00
2018-09-01T01:51:40.804Z,4.00
2018-09-01T01:56:44.498Z,4.00
2018-09-01T02:01:48.131Z,3.00
2018-09-01T02:06:52.701Z,3.20
2018-09-01T02:11:56.314Z,3.75
2018-09-01T02:16:59.899Z,3.00
2018-09-01T02:22:03.596Z,3.50
2018-09-01T02:27:07.255Z,3.00
2018-09-01T02:32:10.907Z,3.00
2018-09-01T02:37:14.714Z,3.20
2018-09-01T02:42:18.373Z,3.75
2018-09-01T02:47:21.966Z,2.75
2018-09-01T02:52:25.660Z,3.00
2018-09-01T02:57:29.284Z,3.50
2018-09-01T03:02:38.077Z,3.25
2018-09-01T03:07:41.698Z,2.40
2018-09-01T03:12:45.291Z,2.25
2018-09-01T03:17:48.956Z,4.20
2018-09-01T03:22:52.616Z,4.20
2018-09-01T03:27:56.953Z,4.00
2018-09-01T03:33:00.622Z,3.75
2018-09-01T03:38:04.255Z,4.00
2018-09-01T03:43:07.907Z,4.00
2018-09-01T03:48:11.562Z,3.00
2018-09-01T03:53:15.270Z,2.75
2018-09-01T03:58:18.865Z,2.20
2018-09-01T04:03:22.517Z,3.75
2018-09-01T04:08:26.114Z,3.00
2018-09-01T04:13:29.720Z,3.00
2018-09-01T04:18:33.405Z,3.00
2018-09-01T04:23:37.009Z,2.25
2018-09-01T04:28:40.590Z,2.00
2018-09-01T04:33:44.195Z,3.50
2018-09-01T04:38:47.811Z,3.00
2018-09-01T04:43:51.434Z,2.75
2018-09-01T04:48:55.086Z,3.25
2018-09-01T04:53:58.698Z,3.00
2018-09-01T04:59:02.407Z,3.50
2018-09-01T05:04:05.995Z,3.25
2018-09-01T05:09:09.706Z,2.50
2018-09-01T05:14:13.360Z,2.75
2018-09-01T05:19:16.982Z,2.00
2018-09-01T05:24:20.596Z,3.20
2018-09-01T05:29:24.228Z,3.00
2018-09-01T05:34:27.793Z,3.00
2018-09-01T05:39:31.395Z,3.00
2018-09-01T05:44:34.983Z,3.20
2018-09-01T05:49:38.610Z,2.75
2018-09-01T05:54:42.212Z,2.50
2018-09-01T05:59:45.831Z,3.00
2018-09-01T06:04:49.433Z,3.00
2018-09-01T06:09:53.004Z,3.25
2018-09-01T06:14:55.588Z,2.20
2018-09-01T06:19:59.197Z,3.25
2018-09-01T06:25:02.892Z,3.40
2018-09-01T06:30:08.260Z,2.80
2018-09-01T06:35:11.865Z,2.60
2018-09-01T06:40:15.537Z,2.40
2018-09-01T06:45:19.135Z,3.00
2018-09-01T06:50:22.763Z,3.20
2018-09-01T06:55:26.368Z,2.20
2018-09-01T07:00:30.009Z,2.80
2018-09-01T07:05:33.585Z,2.20
2018-09-01T07:10:37.198Z,2.50
2018-09-01T07:15:40.787Z,2.20
2018-09-01T07:20:44.330Z,1.75
2018-09-01T07:25:47.963Z,2.00
2018-09-01T07:30:51.737Z,2.20
2018-09-01T07:35:55.239Z,1.25
2018-09-01T07:40:58.872Z,2.40
2018-09-01T07:46:02.502Z,1.00
2018-09-01T07:51:06.211Z,1.00
2018-09-01T07:56:09.921Z,2.40
2018-09-01T08:01:13.484Z,1.00
2018-09-01T08:06:17.084Z,1.00
2018-09-01T08:11:20.671Z,2.20
2018-09-01T08:16:24.281Z,1.50
2018-09-01T08:21:27.929Z,1.00
2018-09-01T08:26:31.578Z,1.25
2018-09-01T08:31:35.063Z,4.60
2018-09-01T08:36:38.635Z,4.20
2018-09-01T08:41:42.288Z,4.00
2018-09-01T08:46:45.961Z,4.40
2018-09-01T08:51:49.583Z,3.20
2018-09-01T08:56:53.598Z,4.50
2018-09-01T09:01:57.270Z,3.75
2018-09-01T09:07:00.849Z,3.20
2018-09-01T09:12:04.487Z,3.20
2018-09-01T09:17:08.158Z,3.00
2018-09-01T09:22:11.777Z,2.60
2018-09-01T09:27:15.351Z,2.00
2018-09-01T09:32:18.918Z,2.00
2018-09-01T09:37:22.477Z,2.00
2018-09-01T09:42:26.085Z,2.40
2018-09-01T09:47:29.787Z,1.20
2018-09-01T09:52:33.326Z,1.50
2018-09-01T09:57:36.872Z,2.20
2018-09-01T10:02:40.462Z,2.00
2018-09-01T10:07:44.001Z,1.20
2018-09-01T10:12:47.605Z,1.50
2018-09-01T10:17:51.270Z,1.20
2018-09-01T10:22:54.826Z,1.60
2018-09-01T10:28:00.273Z,1.75
2018-09-01T10:33:03.941Z,2.00
2018-09-01T10:38:07.573Z,2.00
2018-09-01T10:43:11.258Z,0.80
2018-09-01T10:48:14.846Z,1.60
2018-09-01T10:53:18.461Z,1.75
2018-09-01T10:58:22.282Z,2.60
2018-09-01T11:03:25.950Z,2.00
2018-09-01T11:08:29.598Z,2.00
2018-09-01T11:13:33.170Z,1.25
2018-09-01T11:18:36.718Z,2.00
2018-09-01T11:23:40.353Z,1.00
2018-09-01T11:28:44.486Z,1.20
2018-09-01T11:33:48.111Z,1.00
2018-09-01T11:38:51.764Z,2.40
2018-09-01T11:43:55.765Z,1.50
2018-09-01T11:48:59.341Z,1.25
2018-09-01T11:54:03.091Z,1.60
2018-09-01T11:59:07.069Z,1.75
2018-09-01T12:04:11.037Z,2.00
2018-09-01T12:09:14.748Z,1.60
2018-09-01T12:14:18.505Z,1.50
2018-09-01T12:19:22.419Z,0.50
2018-09-01T12:24:26.020Z,1.80
2018-09-01T12:29:29.615Z,1.50
2018-09-01T12:34:33.274Z,2.50
2018-09-01T12:39:36.939Z,0.40
2018-09-01T12:44:40.586Z,1.00
2018-09-01T12:49:44.214Z,1.20
2018-09-01T12:54:47.860Z,1.20
2018-09-01T12:59:51.513Z,1.00
2018-09-01T13:04:55.152Z,1.00
2018-09-01T13:09:58.769Z,1.20
2018-09-01T13:15:02.489Z,1.60
2018-09-01T13:20:06.082Z,0.80
2018-09-01T13:25:09.737Z,1.20
2018-09-01T13:30:13.537Z,0.80
2018-09-01T13:35:17.124Z,1.25
2018-09-01T13:40:20.773Z,1.25
2018-09-01T13:45:24.429Z,1.20
2018-09-01T13:50:28.069Z,1.00
2018-09-01T13:55:31.652Z,1.00
2018-09-01T14:00:35.246Z,0.75
2018-09-01T14:05:38.877Z,0.40
2018-09-01T14:10:42.461Z,1.00
2018-09-01T14:15:46.078Z,1.00
2018-09-01T14:20:49.646Z,1.00
2018-09-01T14:25:53.351Z,1.00
2018-09-01T14:30:56.983Z,1.00
2018-09-01T14:36:04.074Z,1.20
2018-09-01T14:41:04.638Z,0.40
2018-09-01T14:46:08.315Z,1.00
2018-09-01T14:51:12.164Z,1.00
2018-09-01T14:56:15.766Z,2.20
2018-09-01T15:01:19.424Z,1.50
2018-09-01T15:06:23.104Z,2.00
2018-09-01T15:11:33.039Z,1.00
2018-09-01T15:16:36.672Z,1.20
2018-09-01T15:21:40.231Z,1.25
2018-09-01T15:26:43.817Z,2.20
2018-09-01T15:31:47.440Z,1.00
2018-09-01T15:36:51.065Z,1.75
2018-09-01T15:41:54.725Z,1.00
2018-09-01T15:46:58.427Z,2.00
2018-09-01T15:52:01.980Z,2.60
2018-09-01T15:57:06.084Z,2.20
2018-09-01T16:02:09.719Z,2.00
2018-09-01T16:07:13.420Z,1.75
2018-09-01T16:12:17.084Z,2.20
2018-09-01T16:17:20.696Z,1.60
2018-09-01T16:22:24.345Z,3.00
2018-09-01T16:27:27.969Z,1.80
2018-09-01T16:32:31.585Z,2.20
2018-09-01T16:37:35.228Z,3.00
2018-09-01T16:42:38.821Z,2.40
2018-09-01T16:47:42.489Z,1.20
2018-09-01T16:52:46.146Z,2.00
2018-09-01T16:57:49.835Z,2.40
2018-09-01T17:02:56.931Z,2.00
2018-09-01T17:08:00.893Z,2.75
2018-09-01T17:13:04.730Z,1.50
2018-09-01T17:18:08.608Z,2.25
2018-09-01T17:23:12.391Z,2.00
2018-09-01T17:28:16.078Z,1.80
2018-09-01T17:33:20.257Z,2.80
2018-09-01T17:38:23.865Z,2.80
2018-09-01T17:43:27.567Z,4.00
2018-09-01T17:48:31.161Z,4.00
2018-09-01T17:53:34.841Z,3.60
2018-09-01T17:58:38.465Z,2.75
2018-09-01T18:03:42.057Z,3.00
2018-09-01T18:08:45.649Z,3.60
2018-09-01T18:13:49.963Z,4.00
2018-09-01T18:18:53.667Z,4.00
2018-09-01T18:23:57.238Z,5.50
2018-09-01T18:29:00.825Z,4.80
2018-09-01T18:34:04.465Z,4.20
2018-09-01T18:39:09.618Z,2.80
2018-09-01T18:44:13.831Z,4.25
2018-09-01T18:49:17.844Z,4.80
2018-09-01T18:54:21.450Z,3.75
2018-09-01T18:59:25.156Z,3.50
2018-09-01T19:04:28.833Z,4.20
2018-09-01T19:09:32.651Z,4.75
2018-09-01T19:14:37.519Z,5.00
2018-09-01T19:19:41.193Z,4.00
2018-09-01T19:24:44.885Z,4.60
2018-09-01T19:29:48.658Z,4.75
2018-09-01T19:34:52.381Z,5.00
2018-09-01T19:39:56.051Z,6.20
2018-09-01T19:45:00.001Z,5.20
2018-09-01T19:50:05.844Z,6.00
2018-09-01T19:55:09.784Z,6.00
2018-09-01T20:00:14.536Z,6.40
2018-09-01T20:05:18.252Z,4.80
2018-09-01T20:10:21.933Z,5.25
2018-09-01T20:15:25.655Z,5.60
2018-09-01T20:20:29.429Z,4.50
2018-09-01T20:25:33.142Z,5.25
2018-09-01T20:30:36.714Z,5.00
2018-09-01T20:35:45.487Z,6.20
2018-09-01T20:40:50.100Z,6.50
2018-09-01T20:45:53.739Z,6.00
2018-09-01T20:50:57.397Z,5.80
2018-09-01T20:56:01.007Z,6.00
2018-09-01T21:01:04.832Z,4.80
2018-09-01T21:06:08.904Z,6.00
2018-09-01T21:11:12.869Z,6.20
2018-09-01T21:16:17.331Z,4.50
2018-09-01T21:21:21.013Z,5.75
2018-09-01T21:26:24.769Z,4.80
2018-09-01T21:31:28.437Z,5.80
2018-09-01T21:36:32.044Z,4.75
2018-09-01T21:41:35.717Z,4.40
2018-09-01T21:46:39.432Z,4.80
2018-09-01T21:51:43.124Z,5.25
2018-09-01T21:56:46.856Z,4.60
2018-09-01T22:01:55.797Z,4.60
2018-09-01T22:06:59.411Z,4.75
2018-09-01T22:12:03.022Z,3.80
2018-09-01T22:17:06.667Z,4.50
2018-09-01T22:22:10.249Z,5.50
2018-09-01T22:27:13.805Z,4.60
2018-09-01T22:32:17.475Z,4.50
2018-09-01T22:37:21.039Z,4.50
2018-09-01T22:42:24.802Z,5.40
2018-09-01T22:47:30.295Z,5.00
2018-09-01T22:52:33.944Z,4.20
2018-09-01T22:57:37.613Z,4.75
2018-09-01T23:02:41.155Z,3.25
2018-09-01T23:07:44.797Z,5.40
2018-09-01T23:12:48.378Z,4.75
2018-09-01T23:17:51.992Z,3.60
2018-09-01T23:22:55.648Z,5.60
2018-09-01T23:27:59.308Z,27.60
2018-09-01T23:33:02.960Z,14.50
2018-09-01T23:38:06.684Z,13.40
2018-09-01T23:43:10.335Z,12.50
2018-09-01T23:48:13.977Z,10.20
2018-09-01T23:53:17.631Z,11.20
2018-09-01T23:58:21.217Z,9.50
